sensor_id;sensor_type;location;lat;lon;timestamp;pressure;altitude;pressure_sealevel;temperature;humidity
29433;BME280;16405;53.964;13.448;2022-11-20T00:01:25;100528.88;;;0.77;100.00
29433;BME280;16405;53.964;13.448;2022-11-20T00:03:55;100526.34;;;0.74;100.00
29433;BME280;16405;53.964;13.448;2022-11-20T00:06:22;100522.84;;;0.78;100.00
29433;BME280;16405;53.964;13.448;2022-11-20T00:08:49;100529.63;;;0.88;100.00
29433;BME280;16405;53.964;13.448;2022-11-20T00:11:23;100528.81;;;0.85;100.00
29433;BME280;16405;53.964;13.448;2022-11-20T00:13:53;100540.84;;;0.92;100.00
29433;BME280;16405;53.964;13.448;2022-11-20T00:16:25;100539.91;;;0.99;100.00
29433;BME280;16405;53.964;13.448;2022-11-20T00:18:52;100538.19;;;0.98;100.00
29433;BME280;16405;53.964;13.448;2022-11-20T00:21:22;100536.41;;;1.01;100.00
29433;BME280;16405;53.964;13.448;2022-11-20T00:23:49;100533.88;;;0.97;100.00
29433;BME280;16405;53.964;13.448;2022-11-20T00:26:19;100533.91;;;0.95;100.00
29433;BME280;16405;53.964;13.448;2022-11-20T00:28:58;100533.09;;;0.89;100.00
29433;BME280;16405;53.964;13.448;2022-11-20T00:31:24;100535.66;;;0.93;100.00
29433;BME280;16405;53.964;13.448;2022-11-20T00:33:51;100536.44;;;1.00;100.00
29433;BME280;16405;53.964;13.448;2022-11-20T00:36:26;100532.91;;;1.06;100.00
29433;BME280;16405;53.964;13.448;2022-11-20T00:38:54;100527.72;;;1.07;100.00
29433;BME280;16405;53.964;13.448;2022-11-20T00:41:22;100532.91;;;1.07;100.00
29433;BME280;16405;53.964;13.448;2022-11-20T00:43:48;100534.63;;;1.08;100.00
29433;BME280;16405;53.964;13.448;2022-11-20T00:46:19;100532.91;;;1.07;100.00
29433;BME280;16405;53.964;13.448;2022-11-20T00:48:45;100530.34;;;1.04;100.00
29433;BME280;16405;53.964;13.448;2022-11-20T00:51:18;100531.16;;;1.08;100.00
29433;BME280;16405;53.964;13.448;2022-11-20T00:53:45;100530.31;;;1.06;100.00
29433;BME280;16405;53.964;13.448;2022-11-20T00:56:14;100540.69;;;1.09;100.00
29433;BME280;16405;53.964;13.448;2022-11-20T00:58:44;100531.94;;;1.16;100.00
29433;BME280;16405;53.964;13.448;2022-11-20T01:01:18;100530.19;;;1.21;100.00
29433;BME280;16405;53.964;13.448;2022-11-20T01:03:48;100530.97;;;1.25;100.00
29433;BME280;16405;53.964;13.448;2022-11-20T01:06:32;100543.03;;;1.27;100.00
29433;BME280;16405;53.964;13.448;2022-11-20T01:09:05;100538.75;;;1.26;100.00
29433;BME280;16405;53.964;13.448;2022-11-20T01:11:39;100537.91;;;1.26;100.00
29433;BME280;16405;53.964;13.448;2022-11-20T01:14:13;100537.00;;;1.28;100.00
29433;BME280;16405;53.964;13.448;2022-11-20T01:16:44;100543.94;;;1.26;100.00
29433;BME280;16405;53.964;13.448;2022-11-20T01:19:13;100549.19;;;1.20;100.00
29433;BME280;16405;53.964;13.448;2022-11-20T01:21:42;100547.50;;;1.19;100.00
29433;BME280;16405;53.964;13.448;2022-11-20T01:24:12;100543.16;;;1.16;100.00
29433;BME280;16405;53.964;13.448;2022-11-20T01:26:40;100546.66;;;1.15;100.00
29433;BME280;16405;53.964;13.448;2022-11-20T01:29:10;100545.81;;;1.12;100.00
29433;BME280;16405;53.964;13.448;2022-11-20T01:31:38;100540.78;;;0.99;100.00
29433;BME280;16405;53.964;13.448;2022-11-20T01:34:10;100541.69;;;0.95;100.00
29433;BME280;16405;53.964;13.448;2022-11-20T01:36:40;100538.22;;;0.95;100.00
29433;BME280;16405;53.964;13.448;2022-11-20T01:39:14;100535.59;;;0.98;100.00
29433;BME280;16405;53.964;13.448;2022-11-20T01:41:43;100541.63;;;1.00;100.00
29433;BME280;16405;53.964;13.448;2022-11-20T01:52:47;100545.28;;;0.80;100.00
29433;BME280;16405;53.964;13.448;2022-11-20T01:55:40;100544.34;;;0.86;100.00
29433;BME280;16405;53.964;13.448;2022-11-20T01:58:05;100534.78;;;0.93;100.00
29433;BME280;16405;53.964;13.448;2022-11-20T02:00:31;100533.00;;;0.98;100.00
29433;BME280;16405;53.964;13.448;2022-11-20T02:03:01;100528.72;;;0.95;100.00
29433;BME280;16405;53.964;13.448;2022-11-20T02:08:25;100530.38;;;1.02;100.00
29433;BME280;16405;53.964;13.448;2022-11-20T02:10:51;100525.19;;;1.02;100.00
29433;BME280;16405;53.964;13.448;2022-11-20T02:13:16;100528.63;;;1.05;100.00
29433;BME280;16405;53.964;13.448;2022-11-20T02:16:02;100528.56;;;1.08;100.00
29433;BME280;16405;53.964;13.448;2022-11-20T02:18:28;100517.34;;;1.07;100.00
29433;BME280;16405;53.964;13.448;2022-11-20T02:21:35;100524.22;;;1.10;100.00
29433;BME280;16405;53.964;13.448;2022-11-20T02:27:18;100525.13;;;1.06;100.00
29433;BME280;16405;53.964;13.448;2022-11-20T02:29:56;100522.66;;;0.96;100.00
29433;BME280;16405;53.964;13.448;2022-11-20T02:32:32;100519.22;;;0.94;100.00
29433;BME280;16405;53.964;13.448;2022-11-20T02:37:56;100515.94;;;0.75;100.00
29433;BME280;16405;53.964;13.448;2022-11-20T02:40:24;100512.53;;;0.69;100.00
29433;BME280;16405;53.964;13.448;2022-11-20T02:42:55;100517.69;;;0.73;100.00
29433;BME280;16405;53.964;13.448;2022-11-20T02:45:21;100509.91;;;0.73;100.00
29433;BME280;16405;53.964;13.448;2022-11-20T02:47:48;100514.22;;;0.73;100.00
29433;BME280;16405;53.964;13.448;2022-11-20T02:50:14;100514.22;;;0.74;100.00
29433;BME280;16405;53.964;13.448;2022-11-20T02:52:40;100517.66;;;0.76;100.00
29433;BME280;16405;53.964;13.448;2022-11-20T02:55:06;100523.69;;;0.78;100.00
29433;BME280;16405;53.964;13.448;2022-11-20T02:57:32;100530.53;;;0.84;100.00
29433;BME280;16405;53.964;13.448;2022-11-20T02:59:58;100514.97;;;0.87;100.00
29433;BME280;16405;53.964;13.448;2022-11-20T03:02:24;100518.41;;;0.91;100.00
29433;BME280;16405;53.964;13.448;2022-11-20T03:04:50;100516.69;;;0.88;100.00
29433;BME280;16405;53.964;13.448;2022-11-20T03:07:16;100518.41;;;0.86;100.00
29433;BME280;16405;53.964;13.448;2022-11-20T03:09:44;100513.22;;;0.88;100.00
29433;BME280;16405;53.964;13.448;2022-11-20T03:12:09;100515.81;;;0.88;100.00
29433;BME280;16405;53.964;13.448;2022-11-20T03:14:35;100514.06;;;0.90;100.00
29433;BME280;16405;53.964;13.448;2022-11-20T03:17:01;100515.81;;;0.91;100.00
29433;BME280;16405;53.964;13.448;2022-11-20T03:19:27;100508.06;;;0.86;100.00
29433;BME280;16405;53.964;13.448;2022-11-20T03:21:52;100502.00;;;0.86;100.00
29433;BME280;16405;53.964;13.448;2022-11-20T03:24:18;100506.38;;;0.82;100.00
29433;BME280;16405;53.964;13.448;2022-11-20T03:26:44;100501.22;;;0.79;100.00
29433;BME280;16405;53.964;13.448;2022-11-20T03:29:10;100499.59;;;0.70;100.00
29433;BME280;16405;53.964;13.448;2022-11-20T03:31:39;100503.03;;;0.71;100.00
29433;BME280;16405;53.964;13.448;2022-11-20T03:34:10;100500.47;;;0.66;100.00
29433;BME280;16405;53.964;13.448;2022-11-20T03:36:41;100501.34;;;0.67;100.00
29433;BME280;16405;53.964;13.448;2022-11-20T03:39:08;100500.47;;;0.66;100.00
29433;BME280;16405;53.964;13.448;2022-11-20T03:41:39;100505.66;;;0.66;100.00
29433;BME280;16405;53.964;13.448;2022-11-20T03:44:08;100500.47;;;0.68;100.00
29433;BME280;16405;53.964;13.448;2022-11-20T03:46:34;100499.53;;;0.73;100.00
29433;BME280;16405;53.964;13.448;2022-11-20T03:49:01;100501.25;;;0.76;100.00
29433;BME280;16405;53.964;13.448;2022-11-20T03:51:30;100495.19;;;0.77;100.00
29433;BME280;16405;53.964;13.448;2022-11-20T03:53:59;100498.66;;;0.76;100.00
29433;BME280;16405;53.964;13.448;2022-11-20T03:56:29;100496.88;;;0.79;100.00
29433;BME280;16405;53.964;13.448;2022-11-20T03:58:55;100499.47;;;0.81;100.00
29433;BME280;16405;53.964;13.448;2022-11-20T04:01:34;100497.78;;;0.80;100.00
29433;BME280;16405;53.964;13.448;2022-11-20T04:04:00;100490.00;;;0.77;100.00
29433;BME280;16405;53.964;13.448;2022-11-20T04:06:35;100496.94;;;0.76;100.00
29433;BME280;16405;53.964;13.448;2022-11-20T04:09:01;100497.00;;;0.70;100.00
29433;BME280;16405;53.964;13.448;2022-11-20T04:11:30;100492.72;;;0.65;100.00
29433;BME280;16405;53.964;13.448;2022-11-20T04:13:59;100489.31;;;0.59;100.00
29433;BME280;16405;53.964;13.448;2022-11-20T04:16:28;100483.34;;;0.54;100.00
29433;BME280;16405;53.964;13.448;2022-11-20T04:19:00;100484.19;;;0.55;100.00
29433;BME280;16405;53.964;13.448;2022-11-20T04:21:26;100483.34;;;0.51;100.00
29433;BME280;16405;53.964;13.448;2022-11-20T04:23:53;100481.66;;;0.49;100.00
29433;BME280;16405;53.964;13.448;2022-11-20T04:26:20;100473.88;;;0.47;100.00
29433;BME280;16405;53.964;13.448;2022-11-20T04:28:46;100472.19;;;0.46;100.00
29433;BME280;16405;53.964;13.448;2022-11-20T04:31:19;100475.66;;;0.44;100.00
29433;BME280;16405;53.964;13.448;2022-11-20T04:33:46;100477.38;;;0.45;100.00
29433;BME280;16405;53.964;13.448;2022-11-20T04:36:22;100475.75;;;0.33;100.00
29433;BME280;16405;53.964;13.448;2022-11-20T04:38:57;100467.19;;;0.25;100.00
29433;BME280;16405;53.964;13.448;2022-11-20T04:41:28;100462.00;;;0.22;100.00
29433;BME280;16405;53.964;13.448;2022-11-20T04:43:57;100466.38;;;0.18;100.00
29433;BME280;16405;53.964;13.448;2022-11-20T04:46:31;100460.31;;;0.19;100.00
29433;BME280;16405;53.964;13.448;2022-11-20T04:48:59;100457.75;;;0.17;100.00
29433;BME280;16405;53.964;13.448;2022-11-20T04:51:25;100460.25;;;0.25;100.00
29433;BME280;16405;53.964;13.448;2022-11-20T04:53:51;100464.50;;;0.35;100.00
29433;BME280;16405;53.964;13.448;2022-11-20T04:56:17;100463.59;;;0.38;100.00
29433;BME280;16405;53.964;13.448;2022-11-20T04:58:43;100458.41;;;0.39;100.00
29433;BME280;16405;53.964;13.448;2022-11-20T05:01:15;100463.56;;;0.44;100.00
29433;BME280;16405;53.964;13.448;2022-11-20T05:03:43;100460.13;;;0.42;100.00
29433;BME280;16405;53.964;13.448;2022-11-20T05:06:11;100460.06;;;0.45;100.00
29433;BME280;16405;53.964;13.448;2022-11-20T05:08:38;100467.00;;;0.46;100.00
29433;BME280;16405;53.964;13.448;2022-11-20T05:11:07;100462.66;;;0.47;100.00
29433;BME280;16405;53.964;13.448;2022-11-20T05:13:34;100460.06;;;0.47;100.00
29433;BME280;16405;53.964;13.448;2022-11-20T05:16:06;100468.69;;;0.50;100.00
29433;BME280;16405;53.964;13.448;2022-11-20T05:18:34;100458.31;;;0.50;100.00
29433;BME280;16405;53.964;13.448;2022-11-20T05:21:00;100451.41;;;0.49;100.00
29433;BME280;16405;53.964;13.448;2022-11-20T05:23:27;100455.69;;;0.52;100.00
29433;BME280;16405;53.964;13.448;2022-11-20T05:25:56;100454.84;;;0.51;100.00
29433;BME280;16405;53.964;13.448;2022-11-20T05:28:31;100458.28;;;0.52;100.00
29433;BME280;16405;53.964;13.448;2022-11-20T05:31:13;100466.03;;;0.55;100.00
29433;BME280;16405;53.964;13.448;2022-11-20T05:33:43;100466.03;;;0.56;100.00
29433;BME280;16405;53.964;13.448;2022-11-20T05:36:12;100466.91;;;0.57;100.00
29433;BME280;16405;53.964;13.448;2022-11-20T05:38:39;100464.31;;;0.55;100.00
29433;BME280;16405;53.964;13.448;2022-11-20T05:41:12;100453.94;;;0.54;100.00
29433;BME280;16405;53.964;13.448;2022-11-20T05:43:40;100457.47;;;0.50;100.00
29433;BME280;16405;53.964;13.448;2022-11-20T05:46:08;100452.31;;;0.45;100.00
29433;BME280;16405;53.964;13.448;2022-11-20T05:48:35;100446.31;;;0.40;100.00
29433;BME280;16405;53.964;13.448;2022-11-20T05:51:04;100449.81;;;0.36;100.00
29433;BME280;16405;53.964;13.448;2022-11-20T05:53:35;100448.97;;;0.34;100.00
29433;BME280;16405;53.964;13.448;2022-11-20T05:56:05;100444.69;;;0.33;100.00
29433;BME280;16405;53.964;13.448;2022-11-20T05:58:33;100441.19;;;0.34;100.00
29433;BME280;16405;53.964;13.448;2022-11-20T06:03:44;100443.78;;;0.35;100.00
29433;BME280;16405;53.964;13.448;2022-11-20T06:06:14;100442.94;;;0.33;100.00
29433;BME280;16405;53.964;13.448;2022-11-20T06:08:43;100445.53;;;0.35;100.00
29433;BME280;16405;53.964;13.448;2022-11-20T06:11:12;100442.03;;;0.34;100.00
29433;BME280;16405;53.964;13.448;2022-11-20T06:13:41;100442.94;;;0.33;100.00
29433;BME280;16405;53.964;13.448;2022-11-20T06:16:13;100440.34;;;0.32;100.00
29433;BME280;16405;53.964;13.448;2022-11-20T06:18:39;100439.50;;;0.33;100.00
29433;BME280;16405;53.964;13.448;2022-11-20T06:21:16;100440.34;;;0.35;100.00
29433;BME280;16405;53.964;13.448;2022-11-20T06:23:43;100438.59;;;0.35;100.00
29433;BME280;16405;53.964;13.448;2022-11-20T06:26:13;100436.84;;;0.37;100.00
29433;BME280;16405;53.964;13.448;2022-11-20T06:28:40;100437.72;;;0.36;100.00
29433;BME280;16405;53.964;13.448;2022-11-20T06:31:07;100438.53;;;0.42;100.00
29433;BME280;16405;53.964;13.448;2022-11-20T06:33:33;100435.13;;;0.39;100.00
29433;BME280;16405;53.964;13.448;2022-11-20T06:36:00;100438.56;;;0.38;100.00
29433;BME280;16405;53.964;13.448;2022-11-20T06:38:27;100439.41;;;0.40;100.00
29433;BME280;16405;53.964;13.448;2022-11-20T06:40:54;100440.25;;;0.41;100.00
29433;BME280;16405;53.964;13.448;2022-11-20T06:43:24;100437.66;;;0.41;100.00
29433;BME280;16405;53.964;13.448;2022-11-20T06:45:56;100433.38;;;0.42;100.00
29433;BME280;16405;53.964;13.448;2022-11-20T06:48:26;100430.78;;;0.40;100.00
29433;BME280;16405;53.964;13.448;2022-11-20T06:50:52;100430.78;;;0.40;100.00
29433;BME280;16405;53.964;13.448;2022-11-20T06:53:18;100429.09;;;0.39;100.00
29433;BME280;16405;53.964;13.448;2022-11-20T06:55:45;100437.66;;;0.41;100.00
29433;BME280;16405;53.964;13.448;2022-11-20T06:58:13;100430.78;;;0.42;100.00
29433;BME280;16405;53.964;13.448;2022-11-20T07:00:39;100435.91;;;0.43;100.00
29433;BME280;16405;53.964;13.448;2022-11-20T07:03:07;100422.09;;;0.44;100.00
29433;BME280;16405;53.964;13.448;2022-11-20T07:05:34;100429.84;;;0.47;100.00
29433;BME280;16405;53.964;13.448;2022-11-20T07:08:02;100420.31;;;0.49;100.00
29433;BME280;16405;53.964;13.448;2022-11-20T07:10:28;100428.94;;;0.51;100.00
29433;BME280;16405;53.964;13.448;2022-11-20T07:12:56;100430.63;;;0.58;100.00
29433;BME280;16405;53.964;13.448;2022-11-20T07:15:24;100433.16;;;0.63;100.00
29433;BME280;16405;53.964;13.448;2022-11-20T07:17:50;100428.78;;;0.67;100.00
29433;BME280;16405;53.964;13.448;2022-11-20T07:20:16;100427.03;;;0.69;100.00
29433;BME280;16405;53.964;13.448;2022-11-20T07:22:42;100433.03;;;0.72;100.00
29433;BME280;16405;53.964;13.448;2022-11-20T07:25:09;100432.16;;;0.73;100.00
29433;BME280;16405;53.964;13.448;2022-11-20T07:27:35;100432.13;;;0.76;100.00
29433;BME280;16405;53.964;13.448;2022-11-20T07:30:03;100425.22;;;0.77;100.00
29433;BME280;16405;53.964;13.448;2022-11-20T07:32:29;100426.06;;;0.79;100.00
29433;BME280;16405;53.964;13.448;2022-11-20T07:34:55;100423.47;;;0.80;100.00
29433;BME280;16405;53.964;13.448;2022-11-20T07:37:21;100425.16;;;0.83;100.00
29433;BME280;16405;53.964;13.448;2022-11-20T07:39:49;100425.16;;;0.83;100.00
29433;BME280;16405;53.964;13.448;2022-11-20T07:42:15;100425.09;;;0.89;100.00
29433;BME280;16405;53.964;13.448;2022-11-20T07:44:43;100413.75;;;0.95;100.00
29433;BME280;16405;53.964;13.448;2022-11-20T07:47:09;100426.72;;;0.98;100.00
29433;BME280;16405;53.964;13.448;2022-11-20T07:49:35;100415.44;;;0.99;100.00
29433;BME280;16405;53.964;13.448;2022-11-20T07:52:00;100421.47;;;1.02;100.00
29433;BME280;16405;53.964;13.448;2022-11-20T07:54:26;100423.16;;;1.03;100.00
29433;BME280;16405;53.964;13.448;2022-11-20T07:56:55;100423.22;;;1.00;100.00
29433;BME280;16405;53.964;13.448;2022-11-20T07:59:20;100419.72;;;1.01;100.00
29433;BME280;16405;53.964;13.448;2022-11-20T08:01:46;100419.72;;;1.01;100.00
29433;BME280;16405;53.964;13.448;2022-11-20T08:04:12;100421.41;;;1.07;100.00
29433;BME280;16405;53.964;13.448;2022-11-20T08:06:38;100422.19;;;1.14;100.00
29433;BME280;16405;53.964;13.448;2022-11-20T08:09:03;100421.25;;;1.21;100.00
29433;BME280;16405;53.964;13.448;2022-11-20T08:11:29;100412.50;;;1.27;100.00
29433;BME280;16405;53.964;13.448;2022-11-20T08:14:13;100421.91;;;1.35;100.00
29433;BME280;16405;53.964;13.448;2022-11-20T08:16:48;100413.19;;;1.39;100.00
29433;BME280;16405;53.964;13.448;2022-11-20T08:19:17;100416.56;;;1.46;100.00
29433;BME280;16405;53.964;13.448;2022-11-20T08:21:46;100410.53;;;1.42;100.00
29433;BME280;16405;53.964;13.448;2022-11-20T08:24:12;100407.09;;;1.43;100.00
29433;BME280;16405;53.964;13.448;2022-11-20T08:26:39;100400.16;;;1.42;100.00
29433;BME280;16405;53.964;13.448;2022-11-20T08:29:05;100402.88;;;1.36;100.00
29433;BME280;16405;53.964;13.448;2022-11-20T08:31:32;100400.22;;;1.41;100.00
29433;BME280;16405;53.964;13.448;2022-11-20T08:34:00;100395.94;;;1.35;100.00
29433;BME280;16405;53.964;13.448;2022-11-20T08:36:26;100401.16;;;1.34;100.00
29433;BME280;16405;53.964;13.448;2022-11-20T08:38:55;100400.34;;;1.30;100.00
29433;BME280;16405;53.964;13.448;2022-11-20T08:41:22;100394.34;;;1.25;100.00
29433;BME280;16405;53.964;13.448;2022-11-20T08:43:55;100392.75;;;1.18;100.00
29433;BME280;16405;53.964;13.448;2022-11-20T08:46:22;100392.81;;;1.13;100.00
29433;BME280;16405;53.964;13.448;2022-11-20T08:48:49;100395.41;;;1.12;100.00
29433;BME280;16405;53.964;13.448;2022-11-20T08:51:15;100402.28;;;1.16;100.00
29433;BME280;16405;53.964;13.448;2022-11-20T08:53:41;100406.63;;;1.12;100.00
29433;BME280;16405;53.964;13.448;2022-11-20T08:56:09;100403.19;;;1.12;100.00
29433;BME280;16405;53.964;13.448;2022-11-20T08:58:36;100409.31;;;1.06;100.00
29433;BME280;16405;53.964;13.448;2022-11-20T09:01:02;100404.16;;;1.05;100.00
29433;BME280;16405;53.964;13.448;2022-11-20T09:03:28;100407.59;;;1.03;100.00
29433;BME280;16405;53.964;13.448;2022-11-20T09:05:59;100410.19;;;1.05;100.00
29433;BME280;16405;53.964;13.448;2022-11-20T09:08:27;100405.84;;;1.07;100.00
29433;BME280;16405;53.964;13.448;2022-11-20T09:10:55;100408.44;;;1.07;100.00
29433;BME280;16405;53.964;13.448;2022-11-20T09:13:26;100408.38;;;1.12;100.00
29433;BME280;16405;53.964;13.448;2022-11-20T09:16:03;100410.00;;;1.20;100.00
29433;BME280;16405;53.964;13.448;2022-11-20T09:18:35;100413.34;;;1.30;100.00
29433;BME280;16405;53.964;13.448;2022-11-20T09:21:11;100410.59;;;1.39;100.00
29433;BME280;16405;53.964;13.448;2022-11-20T09:23:42;100406.16;;;1.49;100.00
29433;BME280;16405;53.964;13.448;2022-11-20T09:26:13;100414.72;;;1.56;100.00
29433;BME280;16405;53.964;13.448;2022-11-20T09:28:40;100405.16;;;1.58;100.00
29433;BME280;16405;53.964;13.448;2022-11-20T09:31:26;100406.00;;;1.58;100.00
29433;BME280;16405;53.964;13.448;2022-11-20T09:33:55;100403.41;;;1.58;100.00
29433;BME280;16405;53.964;13.448;2022-11-20T09:36:21;100404.25;;;1.60;100.00
29433;BME280;16405;53.964;13.448;2022-11-20T09:38:47;100405.16;;;1.58;100.00
29433;BME280;16405;53.964;13.448;2022-11-20T09:50:48;100398.38;;;1.48;100.00
29433;BME280;16405;53.964;13.448;2022-11-20T09:56:28;100395.63;;;1.58;100.00
29433;BME280;16405;53.964;13.448;2022-11-20T09:58:59;100392.06;;;1.64;100.00
29433;BME280;16405;53.964;13.448;2022-11-20T10:01:39;100387.69;;;1.68;100.00
29433;BME280;16405;53.964;13.448;2022-11-20T10:04:20;100394.72;;;1.62;100.00
29433;BME280;16405;53.964;13.448;2022-11-20T10:07:16;100392.06;;;1.66;100.00
29433;BME280;16405;53.964;13.448;2022-11-20T10:09:55;100379.97;;;1.63;100.00
29433;BME280;16405;53.964;13.448;2022-11-20T10:13:31;100378.38;;;1.56;100.00
29433;BME280;16405;53.964;13.448;2022-11-20T10:25:19;100373.72;;;1.17;100.00
29433;BME280;16405;53.964;13.448;2022-11-20T10:30:59;100362.53;;;1.12;100.00
29433;BME280;16405;53.964;13.448;2022-11-20T10:33:44;100366.94;;;1.09;100.00
29433;BME280;16405;53.964;13.448;2022-11-20T10:36:26;100366.94;;;1.07;100.00
29433;BME280;16405;53.964;13.448;2022-11-20T10:42:37;100362.66;;;1.06;100.00
29433;BME280;16405;53.964;13.448;2022-11-20T10:56:52;100357.13;;;1.29;100.00
29433;BME280;16405;53.964;13.448;2022-11-20T11:00:04;100359.59;;;1.38;100.00
29433;BME280;16405;53.964;13.448;2022-11-20T11:02:41;100348.19;;;1.49;100.00
29433;BME280;16405;53.964;13.448;2022-11-20T11:05:47;100346.31;;;1.60;100.00
29433;BME280;16405;53.964;13.448;2022-11-20T11:08:18;100351.31;;;1.71;100.00
29433;BME280;16405;53.964;13.448;2022-11-20T11:10:55;100352.00;;;1.82;100.00
29433;BME280;16405;53.964;13.448;2022-11-20T11:13:33;100352.78;;;1.87;100.00
29433;BME280;16405;53.964;13.448;2022-11-20T11:16:02;100351.81;;;1.93;100.00
29433;BME280;16405;53.964;13.448;2022-11-20T11:18:34;100346.63;;;1.93;100.00
29433;BME280;16405;53.964;13.448;2022-11-20T11:21:06;100350.88;;;1.97;100.00
29433;BME280;16405;53.964;13.448;2022-11-20T11:23:38;100351.72;;;1.99;100.00
29433;BME280;16405;53.964;13.448;2022-11-20T11:26:22;100350.88;;;1.97;100.00
29433;BME280;16405;53.964;13.448;2022-11-20T11:29:05;100357.75;;;1.99;100.00
29433;BME280;16405;53.964;13.448;2022-11-20T11:31:35;100352.69;;;1.92;100.00
29433;BME280;16405;53.964;13.448;2022-11-20T11:34:14;100356.19;;;1.91;100.00
29433;BME280;16405;53.964;13.448;2022-11-20T11:36:56;100353.53;;;1.94;100.00
29433;BME280;16405;53.964;13.448;2022-11-20T11:39:24;100351.75;;;1.96;100.00
29433;BME280;16405;53.964;13.448;2022-11-20T11:41:51;100347.41;;;1.98;100.00
29433;BME280;16405;53.964;13.448;2022-11-20T11:44:33;100353.44;;;1.98;100.00
29433;BME280;16405;53.964;13.448;2022-11-20T11:47:29;100348.25;;;1.98;100.00
29433;BME280;16405;53.964;13.448;2022-11-20T11:55:22;100343.88;;;2.02;100.00
29433;BME280;16405;53.964;13.448;2022-11-20T12:07:25;100350.34;;;1.78;100.00
29433;BME280;16405;53.964;13.448;2022-11-20T12:09:59;100341.06;;;1.61;100.00
29433;BME280;16405;53.964;13.448;2022-11-20T12:12:43;100338.47;;;1.63;100.00
29433;BME280;16405;53.964;13.448;2022-11-20T12:15:13;100335.88;;;1.63;100.00
29433;BME280;16405;53.964;13.448;2022-11-20T12:17:43;100328.00;;;1.66;100.00
29433;BME280;16405;53.964;13.448;2022-11-20T12:20:14;100332.16;;;1.78;100.00
29433;BME280;16405;53.964;13.448;2022-11-20T12:22:51;100326.81;;;1.87;100.00
29433;BME280;16405;53.964;13.448;2022-11-20T12:25:24;100321.44;;;1.96;100.00
29433;BME280;16405;53.964;13.448;2022-11-20T12:28:19;100322.97;;;2.08;100.00
29433;BME280;16405;53.964;13.448;2022-11-20T12:37:30;100323.53;;;2.25;100.00
29433;BME280;16405;53.964;13.448;2022-11-20T12:40:28;100320.00;;;2.30;100.00
29433;BME280;16405;53.964;13.448;2022-11-20T12:46:06;100314.72;;;2.33;100.00
29433;BME280;16405;53.964;13.448;2022-11-20T12:51:51;100313.88;;;2.31;100.00
29433;BME280;16405;53.964;13.448;2022-11-20T12:55:30;100311.38;;;2.26;100.00
29433;BME280;16405;53.964;13.448;2022-11-20T13:00:23;100314.91;;;2.22;100.00
29433;BME280;16405;53.964;13.448;2022-11-20T13:03:44;100302.13;;;2.11;100.00
29433;BME280;16405;53.964;13.448;2022-11-20T13:08:43;100302.72;;;1.79;100.00
29433;BME280;16405;53.964;13.448;2022-11-20T13:14:16;100292.75;;;1.56;100.00
29433;BME280;16405;53.964;13.448;2022-11-20T13:19:54;100298.19;;;1.40;100.00
29433;BME280;16405;53.964;13.448;2022-11-20T13:22:52;100295.63;;;1.36;100.00
29433;BME280;16405;53.964;13.448;2022-11-20T13:25:34;100299.97;;;1.34;100.00
29433;BME280;16405;53.964;13.448;2022-11-20T13:28:27;100299.13;;;1.35;100.00
29433;BME280;16405;53.964;13.448;2022-11-20T13:30:56;100297.34;;;1.38;100.00
29433;BME280;16405;53.964;13.448;2022-11-20T13:36:19;100296.03;;;1.64;100.00
29433;BME280;16405;53.964;13.448;2022-11-20T13:38:55;100291.50;;;1.77;100.00
29433;BME280;16405;53.964;13.448;2022-11-20T13:41:36;100291.38;;;1.84;100.00
29433;BME280;16405;53.964;13.448;2022-11-20T13:44:23;100289.63;;;1.85;100.00
29433;BME280;16405;53.964;13.448;2022-11-20T13:46:49;100285.56;;;1.70;100.00
29433;BME280;16405;53.964;13.448;2022-11-20T13:49:28;100286.63;;;1.58;100.00
29433;BME280;16405;53.964;13.448;2022-11-20T13:54:57;100287.75;;;1.43;100.00
29433;BME280;16405;53.964;13.448;2022-11-20T14:00:27;100279.28;;;1.32;100.00
29433;BME280;16405;53.964;13.448;2022-11-20T14:03:19;100280.06;;;1.37;100.00
29433;BME280;16405;53.964;13.448;2022-11-20T14:06:01;100274.88;;;1.36;100.00
29433;BME280;16405;53.964;13.448;2022-11-20T14:08:44;100271.50;;;1.31;100.00
29433;BME280;16405;53.964;13.448;2022-11-20T14:11:21;100270.00;;;1.16;100.00
29433;BME280;16405;53.964;13.448;2022-11-20T14:14:19;100267.66;;;0.99;100.00
29433;BME280;16405;53.964;13.448;2022-11-20T14:16:46;100272.22;;;0.81;100.00
29433;BME280;16405;53.964;13.448;2022-11-20T14:19:28;100264.66;;;0.69;100.00
29433;BME280;16405;53.964;13.448;2022-11-20T14:24:48;100265.91;;;0.36;100.00
29433;BME280;16405;53.964;13.448;2022-11-20T14:27:18;100256.53;;;0.26;100.00
29433;BME280;16405;53.964;13.448;2022-11-20T14:29:49;100258.41;;;0.16;100.00
29433;BME280;16405;53.964;13.448;2022-11-20T14:32:17;100256.75;;;0.07;100.00
29433;BME280;16405;53.964;13.448;2022-11-20T14:34:53;100257.72;;;0.00;100.00
29433;BME280;16405;53.964;13.448;2022-11-20T14:37:27;100254.31;;;-0.07;100.00
29433;BME280;16405;53.964;13.448;2022-11-20T14:39:56;100250.06;;;-0.12;100.00
29433;BME280;16405;53.964;13.448;2022-11-20T14:42:26;100250.06;;;-0.12;100.00
29433;BME280;16405;53.964;13.448;2022-11-20T14:45:03;100247.59;;;-0.22;100.00
29433;BME280;16405;53.964;13.448;2022-11-20T14:47:31;100245.06;;;-0.28;100.00
29433;BME280;16405;53.964;13.448;2022-11-20T14:49:58;100238.25;;;-0.36;100.00
29433;BME280;16405;53.964;13.448;2022-11-20T14:52:27;100245.22;;;-0.43;100.00
29433;BME280;16405;53.964;13.448;2022-11-20T14:54:56;100249.53;;;-0.45;100.00